Weather History for Cumberland, WI

Change the Weather History Date:

Sunday, November 18, 2012

  Actual Average (KRPD) Record (KRPD)
Temperature  
Mean Temperature 46 °F -  
Max Temperature 53 °F 37 °F 60 °F (2001)
Min Temperature 39 °F 23 °F 8 °F (2014)
Degree Days  
Heating Degree Days 19    
Moisture  
Dew Point 32 °F    
Average Humidity 61    
Maximum Humidity 70    
Minimum Humidity 44    
Precipitation  
Precipitation 0.00 in - - ()
Sea Level Pressure  
Sea Level Pressure 30.16 in    
Wind  
Wind Speed 11 mph (SSE)    
Max Wind Speed 18 mph    
Max Gust Speed 25 mph    
Visibility 10 miles    
Events      
Averages and records for this station are not official NWS values.
T = Trace of Precipitation, MM = Missing Value Source: NWS Daily Summary

Daily Weather History Graph

Daily Weather History Graph

Search for Another Location

Airport:

Trip Planner

Search our weather history database for the weather conditions in past years. The results will help you decide how hot, cold, wet, or windy it might be!

Date:

Astronomy

Nov. 18, 2012 Rise Set
Actual Time 7:11 AM CST 4:34 PM CST
Civil Twilight 6:39 AM CST 5:06 PM CST
Nautical Twilight 6:03 AM CST 5:42 PM CST
Astronomical Twilight 5:28 AM CST 6:17 PM CST
Moon 11:35 AM CST (11/18) 9:58 PM CST (11/18)
Length of Visible Light 10h 27m
Length of Day
9h 22m
Waxing Crescent, 30% of the Moon is Illuminated
Nov 18
Waxing Crescent
Nov 20
First Quarter
Nov 28
Full
Dec 6
Last Quarter
Dec 13
New

Hourly Weather History & Observations

Time (CST) Temp. Windchill Dew Point Humidity Pressure Visibility Wind Dir Wind Speed Gust Speed Precip Events Conditions
12:15 AM 42.8 °F 36.6 °F 32.0 °F 66% 30.25 in 10.0 mi South 11.5 mph - N/A   Overcast
12:35 AM 42.8 °F 37.0 °F 32.0 °F 66% 30.25 in 10.0 mi South 10.4 mph - N/A   Overcast
12:55 AM 42.8 °F 36.2 °F 32.0 °F 66% 30.24 in 10.0 mi South 12.7 mph - N/A   Overcast
1:15 AM 42.8 °F 36.6 °F 32.0 °F 66% 30.24 in 10.0 mi SSE 11.5 mph - N/A   Overcast
1:35 AM 42.8 °F 37.0 °F 32.0 °F 66% 30.24 in 10.0 mi SSE 10.4 mph 16.1 mph N/A   Overcast
1:55 AM 42.8 °F 36.6 °F 32.0 °F 66% 30.24 in 10.0 mi SSE 11.5 mph - N/A   Overcast
2:15 AM 42.8 °F 37.5 °F 32.0 °F 66% 30.23 in 10.0 mi SSE 9.2 mph - N/A   Mostly Cloudy
2:35 AM 42.8 °F 36.6 °F 32.0 °F 66% 30.23 in 10.0 mi SSE 11.5 mph 17.3 mph N/A   Overcast
2:55 AM 42.8 °F 37.5 °F 32.0 °F 66% 30.23 in 10.0 mi SE 9.2 mph - N/A   Overcast
3:15 AM 41.0 °F 35.2 °F 32.0 °F 70% 30.23 in 10.0 mi SE 9.2 mph - N/A   Overcast
3:35 AM 41.0 °F 35.8 °F 32.0 °F 70% 30.23 in 10.0 mi SE 8.1 mph - N/A   Overcast
3:55 AM 41.0 °F 35.8 °F 32.0 °F 70% 30.22 in 10.0 mi SE 8.1 mph - N/A   Overcast
4:15 AM 41.0 °F 34.7 °F 32.0 °F 70% 30.22 in 10.0 mi SE 10.4 mph - N/A   Overcast
4:35 AM 41.0 °F 34.7 °F 32.0 °F 70% 30.22 in 10.0 mi SE 10.4 mph - N/A   Overcast
4:55 AM 41.0 °F 34.3 °F 32.0 °F 70% 30.21 in 10.0 mi SE 11.5 mph - N/A   Overcast
5:15 AM 41.0 °F 34.3 °F 32.0 °F 70% 30.21 in 10.0 mi SSE 11.5 mph - N/A   Overcast
5:35 AM 41.0 °F 35.8 °F 30.2 °F 65% 30.20 in 10.0 mi SSE 8.1 mph - N/A   Overcast
5:55 AM 41.0 °F 34.3 °F 30.2 °F 65% 30.20 in 10.0 mi SSE 11.5 mph 17.3 mph N/A   Overcast
6:15 AM 41.0 °F 34.7 °F 30.2 °F 65% 30.20 in 10.0 mi SSE 10.4 mph - N/A   Overcast
6:35 AM 41.0 °F 34.7 °F 30.2 °F 65% 30.20 in 10.0 mi SSE 10.4 mph - N/A   Overcast
6:55 AM 41.0 °F 34.7 °F 30.2 °F 65% 30.19 in 10.0 mi SSE 10.4 mph - N/A   Overcast
7:15 AM 41.0 °F 35.2 °F 30.2 °F 65% 30.19 in 10.0 mi SSE 9.2 mph - N/A   Overcast
7:35 AM 41.0 °F 35.2 °F 30.2 °F 65% 30.19 in 10.0 mi SSE 9.2 mph - N/A   Overcast
7:55 AM 41.0 °F 35.2 °F 30.2 °F 65% 30.19 in 10.0 mi SSE 9.2 mph - N/A   Mostly Cloudy
8:15 AM 39.2 °F 33.0 °F 30.2 °F 70% 30.19 in 10.0 mi SSE 9.2 mph - N/A   Scattered Clouds
8:35 AM 39.2 °F 33.0 °F 30.2 °F 70% 30.18 in 10.0 mi SE 9.2 mph - N/A   Clear
8:55 AM 39.2 °F 33.0 °F 30.2 °F 70% 30.18 in 10.0 mi SE 9.2 mph - N/A   Clear
9:15 AM 39.2 °F 32.5 °F 30.2 °F 70% 30.18 in 10.0 mi SSE 10.4 mph - N/A   Clear
9:35 AM 41.0 °F 34.3 °F 32.0 °F 70% 30.18 in 10.0 mi SSE 11.5 mph - N/A   Clear
9:55 AM 41.0 °F 34.7 °F 32.0 °F 70% 30.17 in 10.0 mi SSE 10.4 mph - N/A   Clear
10:15 AM 42.8 °F 37.0 °F 32.0 °F 66% 30.17 in 10.0 mi SSE 10.4 mph - N/A   Clear
10:35 AM 44.6 °F 39.7 °F 32.0 °F 61% 30.17 in 10.0 mi SSE 9.2 mph - N/A   Clear
10:55 AM 46.4 °F 40.1 °F 32.0 °F 57% 30.16 in 10.0 mi SSE 15.0 mph - N/A   Clear
11:15 AM 46.4 °F 41.1 °F 32.0 °F 57% 30.16 in 10.0 mi South 11.5 mph - N/A   Scattered Clouds
11:35 AM 50.0 °F - 32.0 °F 50% 30.15 in 10.0 mi South 16.1 mph 19.6 mph N/A   Scattered Clouds
11:55 AM 50.0 °F - 32.0 °F 50% 30.14 in 10.0 mi South 15.0 mph - N/A   Mostly Cloudy
12:15 PM 50.0 °F - 32.0 °F 50% 30.13 in 10.0 mi South 18.4 mph - N/A   Overcast
12:35 PM 51.8 °F - 32.0 °F 47% 30.13 in 10.0 mi South 15.0 mph 23.0 mph N/A   Scattered Clouds
12:55 PM 51.8 °F - 32.0 °F 47% 30.12 in 10.0 mi South 16.1 mph - N/A   Scattered Clouds
1:15 PM 51.8 °F - 32.0 °F 47% 30.12 in 10.0 mi South 16.1 mph 20.7 mph N/A   Scattered Clouds
1:35 PM 51.8 °F - 32.0 °F 47% 30.12 in 10.0 mi SSE 17.3 mph - N/A   Mostly Cloudy
1:55 PM 51.8 °F - 32.0 °F 47% 30.11 in 10.0 mi SSE 15.0 mph 19.6 mph N/A   Overcast
2:15 PM 51.8 °F - 32.0 °F 47% 30.10 in 10.0 mi South 16.1 mph 21.9 mph N/A   Mostly Cloudy
2:35 PM 53.6 °F - 32.0 °F 44% 30.10 in 10.0 mi SSE 15.0 mph - N/A   Mostly Cloudy
2:55 PM 53.6 °F - 32.0 °F 44% 30.10 in 10.0 mi South 12.7 mph 25.3 mph N/A   Scattered Clouds
3:15 PM 51.8 °F - 32.0 °F 47% 30.11 in 10.0 mi South 12.7 mph 21.9 mph N/A   Clear
3:35 PM 51.8 °F - 32.0 °F 47% 30.11 in 10.0 mi SSE 10.4 mph 13.8 mph N/A   Clear
3:55 PM 51.8 °F - 32.0 °F 47% 30.11 in 10.0 mi SSE 10.4 mph - N/A   Clear
4:15 PM 50.0 °F - 32.0 °F 50% 30.11 in 10.0 mi SSE 10.4 mph - N/A   Clear
4:35 PM 48.2 °F - 32.0 °F 54% 30.11 in 10.0 mi SSE 9.2 mph - N/A   Clear
4:55 PM 46.4 °F 42.9 °F 32.0 °F 57% 30.11 in 10.0 mi SSE 6.9 mph - N/A   Clear
5:15 PM 46.4 °F 42.4 °F 32.0 °F 57% 30.11 in 10.0 mi SSE 8.1 mph - N/A   Clear
5:35 PM 44.6 °F 40.2 °F 32.0 °F 61% 30.12 in 10.0 mi SSE 8.1 mph - N/A   Clear
5:55 PM 44.6 °F 40.7 °F 32.0 °F 61% 30.12 in 10.0 mi SSE 6.9 mph - N/A   Clear
6:15 PM 44.6 °F 40.2 °F 32.0 °F 61% 30.13 in 10.0 mi SSE 8.1 mph - N/A   Clear
6:35 PM 42.8 °F 38.0 °F 32.0 °F 66% 30.13 in 10.0 mi SSE 8.1 mph - N/A   Clear
6:55 PM 42.8 °F 38.0 °F 32.0 °F 66% 30.13 in 10.0 mi SSE 8.1 mph - N/A   Clear
7:15 PM 42.8 °F 38.6 °F 32.0 °F 66% 30.13 in 10.0 mi SSE 6.9 mph - N/A   Clear
7:35 PM 42.8 °F 38.0 °F 32.0 °F 66% 30.13 in 10.0 mi SSE 8.1 mph - N/A   Clear
7:55 PM 42.8 °F 38.0 °F 32.0 °F 66% 30.13 in 10.0 mi SSE 8.1 mph - N/A   Clear
8:15 PM 42.8 °F 38.6 °F 32.0 °F 66% 30.13 in 10.0 mi SSE 6.9 mph - N/A   Clear
8:35 PM 44.6 °F 40.2 °F 32.0 °F 61% 30.13 in 10.0 mi SSE 8.1 mph - N/A   Clear
8:55 PM 44.6 °F 40.2 °F 32.0 °F 61% 30.13 in 10.0 mi SSE 8.1 mph - N/A   Clear
9:15 PM 42.8 °F 36.6 °F 32.0 °F 66% 30.12 in 10.0 mi SSE 11.5 mph - N/A   Clear
9:35 PM 44.6 °F 40.2 °F 32.0 °F 61% 30.13 in 10.0 mi SSE 8.1 mph - N/A   Clear
9:55 PM 42.8 °F 41.1 °F 32.0 °F 66% 30.13 in 10.0 mi SE 3.5 mph - N/A   Clear
10:15 PM 42.8 °F 38.0 °F 32.0 °F 66% 30.13 in 10.0 mi SSE 8.1 mph - N/A   Scattered Clouds
10:35 PM 44.6 °F 40.2 °F 32.0 °F 61% 30.13 in 10.0 mi SSE 8.1 mph - N/A   Scattered Clouds
11:15 PM 44.6 °F 39.7 °F 32.0 °F 61% 30.14 in 10.0 mi South 9.2 mph - N/A   Scattered Clouds
11:35 PM 44.6 °F 39.7 °F 32.0 °F 61% 30.14 in 10.0 mi South 9.2 mph - N/A   Clear
11:55 PM 44.6 °F 39.7 °F 32.0 °F 61% 30.14 in 10.0 mi SSE 9.2 mph - N/A   Clear